sensor_id;sensor_type;location;lat;lon;timestamp;pressure;altitude;pressure_sealevel;temperature;humidity
61568;BME280;47462;59.172;17.196;2023-09-19T00:00:59;99848.53;;;16.45;99.26
61568;BME280;47462;59.172;17.196;2023-09-19T00:03:24;99847.66;;;16.45;99.55
61568;BME280;47462;59.172;17.196;2023-09-19T00:05:50;99841.44;;;16.46;100.00
61568;BME280;47462;59.172;17.196;2023-09-19T00:08:15;99837.22;;;16.43;100.00
61568;BME280;47462;59.172;17.196;2023-09-19T00:10:42;99831.22;;;16.41;100.00
61568;BME280;47462;59.172;17.196;2023-09-19T00:13:08;99825.03;;;16.42;100.00
61568;BME280;47462;59.172;17.196;2023-09-19T00:15:39;99820.59;;;16.43;100.00
61568;BME280;47462;59.172;17.196;2023-09-19T00:18:06;99807.31;;;16.44;100.00
61568;BME280;47462;59.172;17.196;2023-09-19T00:20:32;99814.38;;;16.44;100.00
61568;BME280;47462;59.172;17.196;2023-09-19T00:22:57;99803.97;;;16.42;100.00
61568;BME280;47462;59.172;17.196;2023-09-19T00:25:24;99799.84;;;16.38;100.00
61568;BME280;47462;59.172;17.196;2023-09-19T00:27:51;99796.16;;;16.40;100.00
61568;BME280;47462;59.172;17.196;2023-09-19T00:30:17;99791.94;;;16.38;100.00
61568;BME280;47462;59.172;17.196;2023-09-19T00:32:47;99786.66;;;16.38;100.00
61568;BME280;47462;59.172;17.196;2023-09-19T00:35:14;99773.50;;;16.38;100.00
61568;BME280;47462;59.172;17.196;2023-09-19T00:37:43;99773.41;;;16.39;100.00
61568;BME280;47462;59.172;17.196;2023-09-19T00:40:08;99766.53;;;16.37;100.00
61568;BME280;47462;59.172;17.196;2023-09-19T00:42:40;99758.66;;;16.37;100.00
61568;BME280;47462;59.172;17.196;2023-09-19T00:45:07;99754.34;;;16.36;100.00
61568;BME280;47462;59.172;17.196;2023-09-19T00:47:35;99763.91;;;16.37;100.00
61568;BME280;47462;59.172;17.196;2023-09-19T00:50:00;99763.91;;;16.37;100.00
61568;BME280;47462;59.172;17.196;2023-09-19T00:52:26;99759.41;;;16.39;100.00
61568;BME280;47462;59.172;17.196;2023-09-19T00:54:52;99762.97;;;16.38;100.00
61568;BME280;47462;59.172;17.196;2023-09-19T00:57:17;99758.53;;;16.38;100.00
61568;BME280;47462;59.172;17.196;2023-09-19T00:59:44;99753.38;;;16.37;100.00
61568;BME280;47462;59.172;17.196;2023-09-19T01:02:10;99745.38;;;16.38;100.00
61568;BME280;47462;59.172;17.196;2023-09-19T01:04:40;99742.53;;;16.41;100.00
61568;BME280;47462;59.172;17.196;2023-09-19T01:07:05;99726.84;;;16.40;100.00
61568;BME280;47462;59.172;17.196;2023-09-19T01:09:31;99716.50;;;16.37;100.00
61568;BME280;47462;59.172;17.196;2023-09-19T01:12:01;99719.91;;;16.39;100.00
61568;BME280;47462;59.172;17.196;2023-09-19T01:15:02;99713.16;;;16.35;100.00
61568;BME280;47462;59.172;17.196;2023-09-19T01:17:33;99703.25;;;16.38;100.00
61568;BME280;47462;59.172;17.196;2023-09-19T01:20:27;99699.06;;;16.36;100.00
61568;BME280;47462;59.172;17.196;2023-09-19T01:23:12;99696.41;;;16.36;100.00
61568;BME280;47462;59.172;17.196;2023-09-19T01:28:32;99695.34;;;16.38;100.00
61568;BME280;47462;59.172;17.196;2023-09-19T01:31:02;99684.91;;;16.37;100.00
61568;BME280;47462;59.172;17.196;2023-09-19T01:33:28;99674.38;;;16.37;100.00
61568;BME280;47462;59.172;17.196;2023-09-19T01:36:11;99662.19;;;16.36;100.00
61568;BME280;47462;59.172;17.196;2023-09-19T01:38:36;99649.03;;;16.36;100.00
61568;BME280;47462;59.172;17.196;2023-09-19T01:41:03;99635.88;;;16.36;100.00
61568;BME280;47462;59.172;17.196;2023-09-19T01:43:34;99638.50;;;16.36;100.00
61568;BME280;47462;59.172;17.196;2023-09-19T01:46:09;99622.81;;;16.34;100.00
61568;BME280;47462;59.172;17.196;2023-09-19T01:48:40;99621.72;;;16.37;100.00
61568;BME280;47462;59.172;17.196;2023-09-19T01:51:09;99620.78;;;16.38;100.00
61568;BME280;47462;59.172;17.196;2023-09-19T01:54:00;99609.53;;;16.36;100.00
61568;BME280;47462;59.172;17.196;2023-09-19T01:56:42;99604.06;;;16.39;100.00
61568;BME280;47462;59.172;17.196;2023-09-19T01:59:13;99598.69;;;16.40;100.00
61568;BME280;47462;59.172;17.196;2023-09-19T02:01:42;99582.03;;;16.40;100.00
61568;BME280;47462;59.172;17.196;2023-09-19T02:04:10;99568.84;;;16.40;100.00
61568;BME280;47462;59.172;17.196;2023-09-19T02:06:35;99563.69;;;16.38;100.00
61568;BME280;47462;59.172;17.196;2023-09-19T02:09:01;99563.69;;;16.38;100.00
61568;BME280;47462;59.172;17.196;2023-09-19T02:11:26;99551.50;;;16.37;100.00
61568;BME280;47462;59.172;17.196;2023-09-19T02:13:51;99541.91;;;16.36;100.00
61568;BME280;47462;59.172;17.196;2023-09-19T02:16:19;99537.47;;;16.37;100.00
61568;BME280;47462;59.172;17.196;2023-09-19T02:18:47;99526.94;;;16.37;100.00
61568;BME280;47462;59.172;17.196;2023-09-19T02:21:12;99532.84;;;16.40;100.00
61568;BME280;47462;59.172;17.196;2023-09-19T02:23:38;99525.78;;;16.41;100.00
61568;BME280;47462;59.172;17.196;2023-09-19T02:26:04;99518.81;;;16.40;100.00
61568;BME280;47462;59.172;17.196;2023-09-19T02:28:30;99515.38;;;16.39;100.00
61568;BME280;47462;59.172;17.196;2023-09-19T02:30:57;99508.19;;;16.41;100.00
61568;BME280;47462;59.172;17.196;2023-09-19T02:33:23;99509.97;;;16.41;100.00
61568;BME280;47462;59.172;17.196;2023-09-19T02:35:48;99492.59;;;16.38;100.00
61568;BME280;47462;59.172;17.196;2023-09-19T02:38:13;99497.75;;;16.40;100.00
61568;BME280;47462;59.172;17.196;2023-09-19T02:40:39;99483.66;;;16.41;100.00
61568;BME280;47462;59.172;17.196;2023-09-19T02:43:05;99474.94;;;16.40;100.00
61568;BME280;47462;59.172;17.196;2023-09-19T02:45:31;99458.25;;;16.40;100.00
61568;BME280;47462;59.172;17.196;2023-09-19T02:47:57;99465.81;;;16.45;100.00
61568;BME280;47462;59.172;17.196;2023-09-19T02:50:23;99457.09;;;16.44;100.00
61568;BME280;47462;59.172;17.196;2023-09-19T02:52:48;99447.50;;;16.43;100.00
61568;BME280;47462;59.172;17.196;2023-09-19T02:55:14;99445.84;;;16.42;100.00
61568;BME280;47462;59.172;17.196;2023-09-19T02:57:53;99443.94;;;16.44;100.00
61568;BME280;47462;59.172;17.196;2023-09-19T03:00:21;99447.31;;;16.46;100.00
61568;BME280;47462;59.172;17.196;2023-09-19T03:02:54;99435.59;;;16.50;100.00
61568;BME280;47462;59.172;17.196;2023-09-19T03:05:21;99418.94;;;16.50;100.00
61568;BME280;47462;59.172;17.196;2023-09-19T03:07:47;99429.16;;;16.54;100.00
61568;BME280;47462;59.172;17.196;2023-09-19T03:10:16;99424.59;;;16.56;100.00
61568;BME280;47462;59.172;17.196;2023-09-19T03:12:42;99418.38;;;16.57;100.00
61568;BME280;47462;59.172;17.196;2023-09-19T03:15:07;99428.91;;;16.57;100.00
61568;BME280;47462;59.172;17.196;2023-09-19T03:17:34;99414.06;;;16.56;100.00
61568;BME280;47462;59.172;17.196;2023-09-19T03:20:00;99404.28;;;16.58;100.00
61568;BME280;47462;59.172;17.196;2023-09-19T03:22:26;99396.38;;;16.58;100.00
61568;BME280;47462;59.172;17.196;2023-09-19T03:24:52;99393.75;;;16.58;100.00
61568;BME280;47462;59.172;17.196;2023-09-19T03:27:18;99383.91;;;16.61;100.00
61568;BME280;47462;59.172;17.196;2023-09-19T03:29:43;99393.75;;;16.58;100.00
61568;BME280;47462;59.172;17.196;2023-09-19T03:32:08;99395.50;;;16.58;100.00
61568;BME280;47462;59.172;17.196;2023-09-19T03:34:37;99391.81;;;16.61;100.00
61568;BME280;47462;59.172;17.196;2023-09-19T03:37:08;99392.66;;;16.61;100.00
61568;BME280;47462;59.172;17.196;2023-09-19T03:39:33;99385.59;;;16.62;100.00
61568;BME280;47462;59.172;17.196;2023-09-19T03:41:59;99380.34;;;16.62;100.00
61568;BME280;47462;59.172;17.196;2023-09-19T03:44:24;99379.59;;;16.59;100.00
61568;BME280;47462;59.172;17.196;2023-09-19T03:46:49;99375.06;;;16.62;100.00
61568;BME280;47462;59.172;17.196;2023-09-19T03:49:15;99376.84;;;16.61;100.00
61568;BME280;47462;59.172;17.196;2023-09-19T03:51:40;99368.13;;;16.61;100.00
61568;BME280;47462;59.172;17.196;2023-09-19T03:54:07;99368.81;;;16.63;100.00
61568;BME280;47462;59.172;17.196;2023-09-19T03:56:33;99367.75;;;16.65;100.00
61568;BME280;47462;59.172;17.196;2023-09-19T03:58:58;99369.56;;;16.65;100.00
61568;BME280;47462;59.172;17.196;2023-09-19T04:03:59;99349.22;;;16.67;100.00
61568;BME280;47462;59.172;17.196;2023-09-19T04:06:33;99353.78;;;16.65;100.00
61568;BME280;47462;59.172;17.196;2023-09-19T04:08:58;99351.97;;;16.65;100.00
61568;BME280;47462;59.172;17.196;2023-09-19T04:11:24;99332.41;;;16.56;100.00
61568;BME280;47462;59.172;17.196;2023-09-19T04:13:49;99351.13;;;16.65;100.00
61568;BME280;47462;59.172;17.196;2023-09-19T04:16:14;99344.19;;;16.64;100.00
61568;BME280;47462;59.172;17.196;2023-09-19T04:18:39;99343.22;;;16.65;100.00
61568;BME280;47462;59.172;17.196;2023-09-19T04:21:05;99334.34;;;16.66;100.00
61568;BME280;47462;59.172;17.196;2023-09-19T04:23:31;99328.38;;;16.64;100.00
61568;BME280;47462;59.172;17.196;2023-09-19T04:25:56;99321.19;;;16.66;100.00
61568;BME280;47462;59.172;17.196;2023-09-19T04:28:22;99304.91;;;16.61;100.00
61568;BME280;47462;59.172;17.196;2023-09-19T04:30:48;99310.66;;;16.66;100.00
61568;BME280;47462;59.172;17.196;2023-09-19T04:33:13;99290.56;;;16.65;100.00
61568;BME280;47462;59.172;17.196;2023-09-19T04:35:40;99290.44;;;16.66;100.00
61568;BME280;47462;59.172;17.196;2023-09-19T04:38:07;99291.03;;;16.70;100.00
61568;BME280;47462;59.172;17.196;2023-09-19T04:40:32;99287.44;;;16.71;100.00
61568;BME280;47462;59.172;17.196;2023-09-19T04:42:59;99282.41;;;16.68;100.00
61568;BME280;47462;59.172;17.196;2023-09-19T04:45:28;99274.50;;;16.68;100.00
61568;BME280;47462;59.172;17.196;2023-09-19T04:47:54;99279.66;;;16.69;100.00
61568;BME280;47462;59.172;17.196;2023-09-19T04:50:19;99287.09;;;16.75;100.00
61568;BME280;47462;59.172;17.196;2023-09-19T04:52:49;99259.06;;;16.63;100.00
61568;BME280;47462;59.172;17.196;2023-09-19T04:55:17;99284.34;;;16.77;100.00
61568;BME280;47462;59.172;17.196;2023-09-19T04:57:46;99279.19;;;16.75;100.00
61568;BME280;47462;59.172;17.196;2023-09-19T05:00:22;99272.72;;;16.80;100.00
61568;BME280;47462;59.172;17.196;2023-09-19T05:02:54;99258.00;;;16.77;100.00
61568;BME280;47462;59.172;17.196;2023-09-19T05:05:21;99259.06;;;16.74;100.00
61568;BME280;47462;59.172;17.196;2023-09-19T05:07:48;99239.91;;;16.72;100.00
61568;BME280;47462;59.172;17.196;2023-09-19T05:10:13;99250.09;;;16.77;100.00
61568;BME280;47462;59.172;17.196;2023-09-19T05:12:39;99212.97;;;16.57;100.00
61568;BME280;47462;59.172;17.196;2023-09-19T05:15:05;99241.69;;;16.72;100.00
61568;BME280;47462;59.172;17.196;2023-09-19T05:17:32;99241.81;;;16.82;100.00
61568;BME280;47462;59.172;17.196;2023-09-19T05:19:58;99247.22;;;16.80;100.00
61568;BME280;47462;59.172;17.196;2023-09-19T05:22:28;99239.19;;;16.82;100.00
61568;BME280;47462;59.172;17.196;2023-09-19T05:24:54;99229.72;;;16.79;100.00
61568;BME280;47462;59.172;17.196;2023-09-19T05:27:19;99242.66;;;16.82;100.00
61568;BME280;47462;59.172;17.196;2023-09-19T05:29:46;99223.00;;;16.75;100.00
61568;BME280;47462;59.172;17.196;2023-09-19T05:32:12;99236.56;;;16.82;100.00
61568;BME280;47462;59.172;17.196;2023-09-19T05:34:38;99228.78;;;16.80;100.00
61568;BME280;47462;59.172;17.196;2023-09-19T05:37:04;99223.25;;;16.83;100.00
61568;BME280;47462;59.172;17.196;2023-09-19T05:39:30;99236.94;;;16.88;100.00
61568;BME280;47462;59.172;17.196;2023-09-19T05:41:55;99242.22;;;16.88;100.00
61568;BME280;47462;59.172;17.196;2023-09-19T05:44:22;99227.91;;;16.80;100.00
61568;BME280;47462;59.172;17.196;2023-09-19T05:46:47;99240.28;;;16.90;100.00
61568;BME280;47462;59.172;17.196;2023-09-19T05:49:14;99221.97;;;16.89;100.00
61568;BME280;47462;59.172;17.196;2023-09-19T05:51:39;99209.59;;;16.78;100.00
61568;BME280;47462;59.172;17.196;2023-09-19T05:54:05;99224.59;;;16.89;100.00
61568;BME280;47462;59.172;17.196;2023-09-19T05:56:30;99219.19;;;16.90;100.00
61568;BME280;47462;59.172;17.196;2023-09-19T05:58:56;99222.06;;;16.87;100.00
61568;BME280;47462;59.172;17.196;2023-09-19T06:01:21;99226.41;;;16.88;100.00
61568;BME280;47462;59.172;17.196;2023-09-19T06:03:47;99212.53;;;16.86;100.00
61568;BME280;47462;59.172;17.196;2023-09-19T06:06:13;99214.78;;;16.91;100.00
61568;BME280;47462;59.172;17.196;2023-09-19T06:08:38;99208.06;;;16.87;100.00
61568;BME280;47462;59.172;17.196;2023-09-19T06:11:03;99215.63;;;16.91;100.00
61568;BME280;47462;59.172;17.196;2023-09-19T06:13:34;99208.06;;;16.87;100.00
61568;BME280;47462;59.172;17.196;2023-09-19T06:16:00;99204.00;;;16.94;100.00
61568;BME280;47462;59.172;17.196;2023-09-19T06:18:31;99183.16;;;16.91;100.00
61568;BME280;47462;59.172;17.196;2023-09-19T06:20:59;99204.94;;;17.04;100.00
61568;BME280;47462;59.172;17.196;2023-09-19T06:23:25;99201.09;;;17.08;100.00
61568;BME280;47462;59.172;17.196;2023-09-19T06:25:52;99206.50;;;17.18;100.00
61568;BME280;47462;59.172;17.196;2023-09-19T06:28:18;99205.13;;;17.24;100.00
61568;BME280;47462;59.172;17.196;2023-09-19T06:30:49;99202.00;;;17.30;100.00
61568;BME280;47462;59.172;17.196;2023-09-19T06:33:14;99200.09;;;17.32;100.00
61568;BME280;47462;59.172;17.196;2023-09-19T06:35:40;99199.13;;;17.33;100.00
61568;BME280;47462;59.172;17.196;2023-09-19T06:38:07;99178.41;;;17.28;100.00
61568;BME280;47462;59.172;17.196;2023-09-19T06:40:33;99186.41;;;17.38;100.00
61568;BME280;47462;59.172;17.196;2023-09-19T06:43:02;99164.41;;;17.28;100.00
61568;BME280;47462;59.172;17.196;2023-09-19T06:45:28;99188.69;;;17.43;100.00
61568;BME280;47462;59.172;17.196;2023-09-19T06:47:54;99186.75;;;17.45;100.00
61568;BME280;47462;59.172;17.196;2023-09-19T06:50:23;99182.91;;;17.49;100.00
61568;BME280;47462;59.172;17.196;2023-09-19T06:52:50;99186.06;;;17.64;100.00
61568;BME280;47462;59.172;17.196;2023-09-19T06:55:20;99148.38;;;17.52;100.00
61568;BME280;47462;59.172;17.196;2023-09-19T06:57:46;99160.03;;;17.71;100.00
61568;BME280;47462;59.172;17.196;2023-09-19T07:00:12;99165.63;;;17.77;100.00
61568;BME280;47462;59.172;17.196;2023-09-19T07:02:41;99166.66;;;17.86;100.00
61568;BME280;47462;59.172;17.196;2023-09-19T07:05:24;99156.66;;;18.01;100.00
61568;BME280;47462;59.172;17.196;2023-09-19T07:07:49;99141.69;;;18.11;100.00
61568;BME280;47462;59.172;17.196;2023-09-19T07:10:15;99135.06;;;18.17;100.00
61568;BME280;47462;59.172;17.196;2023-09-19T07:12:41;99128.56;;;18.21;100.00
61568;BME280;47462;59.172;17.196;2023-09-19T07:15:08;99114.19;;;18.14;100.00
61568;BME280;47462;59.172;17.196;2023-09-19T07:17:34;99113.94;;;18.17;100.00
61568;BME280;47462;59.172;17.196;2023-09-19T07:20:00;99110.88;;;18.12;100.00
61568;BME280;47462;59.172;17.196;2023-09-19T07:22:28;99096.78;;;18.02;100.00
61568;BME280;47462;59.172;17.196;2023-09-19T07:24:54;99107.97;;;18.15;100.00
61568;BME280;47462;59.172;17.196;2023-09-19T07:27:20;99109.50;;;18.17;100.00
61568;BME280;47462;59.172;17.196;2023-09-19T07:29:45;99111.56;;;18.14;100.00
61568;BME280;47462;59.172;17.196;2023-09-19T07:32:11;99120.91;;;18.18;100.00
61568;BME280;47462;59.172;17.196;2023-09-19T07:34:37;99115.50;;;18.20;100.00
61568;BME280;47462;59.172;17.196;2023-09-19T07:37:04;99110.06;;;18.21;100.00
61568;BME280;47462;59.172;17.196;2023-09-19T07:39:29;99108.94;;;18.14;100.00
61568;BME280;47462;59.172;17.196;2023-09-19T07:41:54;99119.09;;;18.18;100.00
61568;BME280;47462;59.172;17.196;2023-09-19T07:44:23;99118.41;;;18.16;100.00
61568;BME280;47462;59.172;17.196;2023-09-19T07:46:50;99110.88;;;18.12;100.00
61568;BME280;47462;59.172;17.196;2023-09-19T07:49:17;99120.41;;;18.03;100.00
61568;BME280;47462;59.172;17.196;2023-09-19T07:51:43;99118.16;;;17.98;100.00
61568;BME280;47462;59.172;17.196;2023-09-19T07:54:12;99107.03;;;17.95;100.00
61568;BME280;47462;59.172;17.196;2023-09-19T07:56:38;99115.09;;;17.93;100.00
61568;BME280;47462;59.172;17.196;2023-09-19T07:59:07;99123.97;;;17.92;100.00
61568;BME280;47462;59.172;17.196;2023-09-19T08:01:33;99087.31;;;17.78;100.00
61568;BME280;47462;59.172;17.196;2023-09-19T08:04:00;99090.41;;;17.83;100.00
61568;BME280;47462;59.172;17.196;2023-09-19T08:06:26;99093.16;;;17.81;100.00
61568;BME280;47462;59.172;17.196;2023-09-19T08:08:55;99093.72;;;17.85;100.00
61568;BME280;47462;59.172;17.196;2023-09-19T08:11:22;99097.09;;;17.87;100.00
61568;BME280;47462;59.172;17.196;2023-09-19T08:13:49;99092.41;;;17.91;100.00
61568;BME280;47462;59.172;17.196;2023-09-19T08:16:15;99089.13;;;17.98;100.00
61568;BME280;47462;59.172;17.196;2023-09-19T08:18:41;99094.97;;;18.02;100.00
61568;BME280;47462;59.172;17.196;2023-09-19T08:21:07;99088.84;;;18.02;100.00
61568;BME280;47462;59.172;17.196;2023-09-19T08:23:35;99085.97;;;18.05;100.00
61568;BME280;47462;59.172;17.196;2023-09-19T08:26:01;99092.78;;;18.07;100.00
61568;BME280;47462;59.172;17.196;2023-09-19T08:28:32;99073.03;;;18.02;100.00
61568;BME280;47462;59.172;17.196;2023-09-19T08:31:02;99079.47;;;18.09;100.00
61568;BME280;47462;59.172;17.196;2023-09-19T08:33:31;99058.75;;;18.14;100.00
61568;BME280;47462;59.172;17.196;2023-09-19T08:35:56;99052.25;;;18.18;100.00
61568;BME280;47462;59.172;17.196;2023-09-19T08:38:22;99056.47;;;18.30;100.00
61568;BME280;47462;59.172;17.196;2023-09-19T08:40:47;99060.41;;;18.46;98.97
61568;BME280;47462;59.172;17.196;2023-09-19T08:43:13;99054.03;;;18.48;98.23
61568;BME280;47462;59.172;17.196;2023-09-19T08:45:38;99040.84;;;18.58;98.32
61568;BME280;47462;59.172;17.196;2023-09-19T08:50:31;99034.88;;;18.76;97.78
61568;BME280;47462;59.172;17.196;2023-09-19T08:53:00;99051.47;;;18.87;97.18
61568;BME280;47462;59.172;17.196;2023-09-19T08:55:29;99045.09;;;18.90;96.43
61568;BME280;47462;59.172;17.196;2023-09-19T08:58:06;99050.22;;;19.01;95.84
61568;BME280;47462;59.172;17.196;2023-09-19T09:00:34;99044.38;;;19.07;95.61
61568;BME280;47462;59.172;17.196;2023-09-19T09:03:01;99049.69;;;19.17;95.39
61568;BME280;47462;59.172;17.196;2023-09-19T09:05:28;99045.50;;;19.15;92.17
61568;BME280;47462;59.172;17.196;2023-09-19T09:07:54;99029.91;;;19.12;92.12
61568;BME280;47462;59.172;17.196;2023-09-19T09:10:22;99051.34;;;19.28;91.83
61568;BME280;47462;59.172;17.196;2023-09-19T09:12:51;99037.00;;;19.21;90.70
61568;BME280;47462;59.172;17.196;2023-09-19T09:15:18;99054.56;;;19.22;91.10
61568;BME280;47462;59.172;17.196;2023-09-19T09:17:49;99052.59;;;19.14;90.32
61568;BME280;47462;59.172;17.196;2023-09-19T09:20:19;99043.25;;;19.00;89.54
61568;BME280;47462;59.172;17.196;2023-09-19T09:22:56;99044.94;;;19.01;90.14
61568;BME280;47462;59.172;17.196;2023-09-19T09:25:49;99051.47;;;18.97;90.59
61568;BME280;47462;59.172;17.196;2023-09-19T09:28:21;99040.75;;;18.89;90.22
61568;BME280;47462;59.172;17.196;2023-09-19T09:30:46;99046.56;;;18.83;89.17
61568;BME280;47462;59.172;17.196;2023-09-19T09:33:13;99046.84;;;18.80;88.83
61568;BME280;47462;59.172;17.196;2023-09-19T09:38:29;99035.84;;;18.84;89.38
61568;BME280;47462;59.172;17.196;2023-09-19T09:40:59;99039.06;;;18.88;89.19
61568;BME280;47462;59.172;17.196;2023-09-19T09:46:16;99032.38;;;18.84;87.26
61568;BME280;47462;59.172;17.196;2023-09-19T09:51:33;99026.72;;;18.98;86.90
61568;BME280;47462;59.172;17.196;2023-09-19T09:54:18;99019.34;;;19.12;83.35
61568;BME280;47462;59.172;17.196;2023-09-19T09:57:01;99023.50;;;19.24;82.71
61568;BME280;47462;59.172;17.196;2023-09-19T10:02:17;98992.63;;;19.15;83.09
61568;BME280;47462;59.172;17.196;2023-09-19T10:04:57;99007.25;;;19.19;83.50
61568;BME280;47462;59.172;17.196;2023-09-19T10:07:40;99030.91;;;19.20;82.61
61568;BME280;47462;59.172;17.196;2023-09-19T10:10:15;99019.91;;;19.25;81.77
61568;BME280;47462;59.172;17.196;2023-09-19T10:12:49;99019.31;;;19.31;81.54
61568;BME280;47462;59.172;17.196;2023-09-19T10:15:22;99021.94;;;19.41;81.81
61568;BME280;47462;59.172;17.196;2023-09-19T10:17:52;99035.16;;;19.51;82.33
61568;BME280;47462;59.172;17.196;2023-09-19T10:20:21;99008.25;;;19.65;81.53
61568;BME280;47462;59.172;17.196;2023-09-19T10:22:50;99025.59;;;19.97;78.70
61568;BME280;47462;59.172;17.196;2023-09-19T10:25:27;99010.31;;;20.19;75.66
61568;BME280;47462;59.172;17.196;2023-09-19T10:28:00;99001.09;;;20.41;73.91
61568;BME280;47462;59.172;17.196;2023-09-19T10:30:30;99008.31;;;20.48;72.18
61568;BME280;47462;59.172;17.196;2023-09-19T10:33:01;99013.41;;;20.32;73.01
61568;BME280;47462;59.172;17.196;2023-09-19T10:35:28;99024.06;;;20.22;72.12
61568;BME280;47462;59.172;17.196;2023-09-19T10:37:56;99036.19;;;19.97;69.69
61568;BME280;47462;59.172;17.196;2023-09-19T10:40:22;99028.03;;;19.61;69.65
61568;BME280;47462;59.172;17.196;2023-09-19T10:43:00;99026.69;;;19.37;68.69
61568;BME280;47462;59.172;17.196;2023-09-19T10:45:28;99027.69;;;19.17;69.30
61568;BME280;47462;59.172;17.196;2023-09-19T10:47:57;99046.63;;;19.22;68.54
61568;BME280;47462;59.172;17.196;2023-09-19T10:50:23;99045.78;;;19.12;67.22
61568;BME280;47462;59.172;17.196;2023-09-19T10:52:50;99030.75;;;19.02;67.51
61568;BME280;47462;59.172;17.196;2023-09-19T10:55:25;99046.19;;;19.07;67.31
61568;BME280;47462;59.172;17.196;2023-09-19T10:57:53;99049.66;;;19.07;65.12
61568;BME280;47462;59.172;17.196;2023-09-19T11:00:19;99060.78;;;19.01;66.47
61568;BME280;47462;59.172;17.196;2023-09-19T11:03:16;99054.53;;;19.02;65.89
61568;BME280;47462;59.172;17.196;2023-09-19T11:06:03;99052.31;;;19.27;66.33
61568;BME280;47462;59.172;17.196;2023-09-19T11:09:02;99056.63;;;19.38;65.48
61568;BME280;47462;59.172;17.196;2023-09-19T11:11:47;99037.38;;;19.55;64.67
61568;BME280;47462;59.172;17.196;2023-09-19T11:30:32;99048.53;;;20.62;56.13
61568;BME280;47462;59.172;17.196;2023-09-19T11:43:45;99044.50;;;20.02;57.87
61568;BME280;47462;59.172;17.196;2023-09-19T11:46:12;99057.06;;;20.00;59.39
61568;BME280;47462;59.172;17.196;2023-09-19T11:48:41;99059.00;;;19.98;58.98
61568;BME280;47462;59.172;17.196;2023-09-19T11:51:11;99054.03;;;19.85;59.07
61568;BME280;47462;59.172;17.196;2023-09-19T11:53:45;99056.75;;;19.56;58.96
61568;BME280;47462;59.172;17.196;2023-09-19T11:56:18;99052.16;;;19.38;57.66
61568;BME280;47462;59.172;17.196;2023-09-19T11:58:45;99061.91;;;19.18;59.59
61568;BME280;47462;59.172;17.196;2023-09-19T12:01:14;99050.22;;;18.92;58.84
61568;BME280;47462;59.172;17.196;2023-09-19T12:03:46;99053.81;;;18.81;59.21
61568;BME280;47462;59.172;17.196;2023-09-19T12:06:14;99073.13;;;18.81;59.57
61568;BME280;47462;59.172;17.196;2023-09-19T12:08:41;99080.13;;;18.92;59.42
61568;BME280;47462;59.172;17.196;2023-09-19T12:11:12;99079.72;;;18.87;59.76
61568;BME280;47462;59.172;17.196;2023-09-19T12:13:42;99069.09;;;18.77;58.96
61568;BME280;47462;59.172;17.196;2023-09-19T12:16:17;99065.63;;;18.77;58.17
61568;BME280;47462;59.172;17.196;2023-09-19T12:18:45;99062.69;;;18.70;57.39
61568;BME280;47462;59.172;17.196;2023-09-19T12:21:31;99076.59;;;18.82;59.09
61568;BME280;47462;59.172;17.196;2023-09-19T12:26:44;99042.78;;;18.56;59.76
61568;BME280;47462;59.172;17.196;2023-09-19T12:29:18;99070.56;;;18.50;59.14
61568;BME280;47462;59.172;17.196;2023-09-19T12:31:54;99072.19;;;18.42;57.50
61568;BME280;47462;59.172;17.196;2023-09-19T12:34:31;99075.91;;;18.29;57.83
61568;BME280;47462;59.172;17.196;2023-09-19T12:37:14;99071.44;;;18.20;56.67
61568;BME280;47462;59.172;17.196;2023-09-19T12:40:04;99060.25;;;18.07;56.94
61568;BME280;47462;59.172;17.196;2023-09-19T12:42:40;99074.88;;;18.11;58.42
61568;BME280;47462;59.172;17.196;2023-09-19T12:45:07;99082.78;;;18.11;57.99
61568;BME280;47462;59.172;17.196;2023-09-19T12:47:34;99074.13;;;17.99;57.64
61568;BME280;47462;59.172;17.196;2023-09-19T12:50:12;99075.25;;;18.06;59.10
61568;BME280;47462;59.172;17.196;2023-09-19T12:52:43;99073.56;;;17.95;57.30
61568;BME280;47462;59.172;17.196;2023-09-19T12:55:29;99073.94;;;17.91;57.93
61568;BME280;47462;59.172;17.196;2023-09-19T13:00:37;99085.13;;;17.83;56.18
61568;BME280;47462;59.172;17.196;2023-09-19T13:05:54;99107.19;;;17.61;55.93
61568;BME280;47462;59.172;17.196;2023-09-19T13:08:26;99110.59;;;17.52;54.90
61568;BME280;47462;59.172;17.196;2023-09-19T13:13:39;99106.81;;;17.12;52.27
61568;BME280;47462;59.172;17.196;2023-09-19T13:16:05;99101.25;;;16.94;50.07
61568;BME280;47462;59.172;17.196;2023-09-19T13:18:47;99083.63;;;16.94;52.07
61568;BME280;47462;59.172;17.196;2023-09-19T13:21:16;99112.72;;;16.93;50.52
61568;BME280;47462;59.172;17.196;2023-09-19T13:23:53;99107.22;;;16.96;51.79
61568;BME280;47462;59.172;17.196;2023-09-19T13:26:24;99101.38;;;16.92;51.85
61568;BME280;47462;59.172;17.196;2023-09-19T13:28:49;99114.03;;;16.99;51.89
61568;BME280;47462;59.172;17.196;2023-09-19T13:31:14;99111.75;;;17.05;52.31
61568;BME280;47462;59.172;17.196;2023-09-19T13:33:43;99123.03;;;16.96;50.58
61568;BME280;47462;59.172;17.196;2023-09-19T13:36:10;99088.28;;;16.80;51.83
61568;BME280;47462;59.172;17.196;2023-09-19T13:38:37;99114.50;;;16.81;50.56
61568;BME280;47462;59.172;17.196;2023-09-19T13:41:02;99126.88;;;16.69;49.92
61568;BME280;47462;59.172;17.196;2023-09-19T13:43:28;99133.59;;;16.62;51.49
61568;BME280;47462;59.172;17.196;2023-09-19T13:45:54;99130.97;;;16.62;51.96
61568;BME280;47462;59.172;17.196;2023-09-19T13:48:19;99126.41;;;16.53;53.00